sensor_id;sensor_type;location;lat;lon;timestamp;temperature;humidity
61400;DHT22;47269;48.182;-1.946;2023-02-13T06:02:08;3.20;99.90
61400;DHT22;47269;48.182;-1.946;2023-02-13T06:04:34;3.20;99.90
61400;DHT22;47269;48.182;-1.946;2023-02-13T06:06:59;3.10;99.90
61400;DHT22;47269;48.182;-1.946;2023-02-13T06:09:25;3.20;99.90
61400;DHT22;47269;48.182;-1.946;2023-02-13T06:11:51;3.10;99.90
61400;DHT22;47269;48.182;-1.946;2023-02-13T06:14:16;3.20;99.90
61400;DHT22;47269;48.182;-1.946;2023-02-13T06:16:42;3.20;99.90
61400;DHT22;47269;48.182;-1.946;2023-02-13T06:19:08;3.10;99.90
61400;DHT22;47269;48.182;-1.946;2023-02-13T06:21:33;3.10;99.90
61400;DHT22;47269;48.182;-1.946;2023-02-13T06:24:03;3.00;99.90
61400;DHT22;47269;48.182;-1.946;2023-02-13T06:26:29;3.10;99.90
61400;DHT22;47269;48.182;-1.946;2023-02-13T06:28:55;2.90;99.90
61400;DHT22;47269;48.182;-1.946;2023-02-13T06:31:20;3.00;99.90
61400;DHT22;47269;48.182;-1.946;2023-02-13T06:33:46;3.00;99.90
61400;DHT22;47269;48.182;-1.946;2023-02-13T06:36:12;2.90;99.90
61400;DHT22;47269;48.182;-1.946;2023-02-13T06:38:37;2.90;99.90
61400;DHT22;47269;48.182;-1.946;2023-02-13T06:41:31;2.80;99.90
61400;DHT22;47269;48.182;-1.946;2023-02-13T06:43:57;2.80;99.90
61400;DHT22;47269;48.182;-1.946;2023-02-13T06:46:22;2.70;99.90
61400;DHT22;47269;48.182;-1.946;2023-02-13T06:48:48;2.80;99.90
61400;DHT22;47269;48.182;-1.946;2023-02-13T06:51:14;2.70;99.90
61400;DHT22;47269;48.182;-1.946;2023-02-13T06:53:39;2.80;99.90
61400;DHT22;47269;48.182;-1.946;2023-02-13T06:56:05;2.70;99.90
61400;DHT22;47269;48.182;-1.946;2023-02-13T06:58:31;2.70;99.90
61400;DHT22;47269;48.182;-1.946;2023-02-13T07:00:59;2.70;99.90
61400;DHT22;47269;48.182;-1.946;2023-02-13T07:03:24;2.70;99.90
61400;DHT22;47269;48.182;-1.946;2023-02-13T07:05:50;2.70;99.90
61400;DHT22;47269;48.182;-1.946;2023-02-13T07:08:18;2.70;99.90
61400;DHT22;47269;48.182;-1.946;2023-02-13T07:10:44;2.60;99.90
61400;DHT22;47269;48.182;-1.946;2023-02-13T07:13:10;2.60;99.90
61400;DHT22;47269;48.182;-1.946;2023-02-13T07:15:36;2.60;99.90
61400;DHT22;47269;48.182;-1.946;2023-02-13T07:18:03;2.60;99.90
61400;DHT22;47269;48.182;-1.946;2023-02-13T07:20:29;2.50;99.90
61400;DHT22;47269;48.182;-1.946;2023-02-13T07:23:02;2.60;99.90
61400;DHT22;47269;48.182;-1.946;2023-02-13T07:25:29;2.60;99.90
61400;DHT22;47269;48.182;-1.946;2023-02-13T07:27:57;2.70;99.90
61400;DHT22;47269;48.182;-1.946;2023-02-13T07:30:24;2.70;99.90
61400;DHT22;47269;48.182;-1.946;2023-02-13T07:32:50;2.60;99.90
61400;DHT22;47269;48.182;-1.946;2023-02-13T07:35:16;2.60;99.90
61400;DHT22;47269;48.182;-1.946;2023-02-13T07:37:42;2.70;99.90
61400;DHT22;47269;48.182;-1.946;2023-02-13T07:40:08;2.70;99.90
61400;DHT22;47269;48.182;-1.946;2023-02-13T07:42:34;2.60;99.90
61400;DHT22;47269;48.182;-1.946;2023-02-13T07:45:00;2.60;99.90
61400;DHT22;47269;48.182;-1.946;2023-02-13T07:47:25;2.70;99.90
61400;DHT22;47269;48.182;-1.946;2023-02-13T07:49:51;2.80;99.90
61400;DHT22;47269;48.182;-1.946;2023-02-13T07:52:19;2.60;99.90
61400;DHT22;47269;48.182;-1.946;2023-02-13T07:54:44;2.70;99.90
61400;DHT22;47269;48.182;-1.946;2023-02-13T07:57:15;2.80;99.90
61400;DHT22;47269;48.182;-1.946;2023-02-13T07:59:41;2.70;99.90
61400;DHT22;47269;48.182;-1.946;2023-02-13T08:02:13;2.70;99.90
61400;DHT22;47269;48.182;-1.946;2023-02-13T08:04:41;2.70;99.90
61400;DHT22;47269;48.182;-1.946;2023-02-13T08:07:10;2.80;99.90
61400;DHT22;47269;48.182;-1.946;2023-02-13T08:09:36;2.70;99.90
61400;DHT22;47269;48.182;-1.946;2023-02-13T08:12:21;2.70;99.90
61400;DHT22;47269;48.182;-1.946;2023-02-13T08:14:47;2.70;99.90
61400;DHT22;47269;48.182;-1.946;2023-02-13T08:17:12;2.60;99.90
61400;DHT22;47269;48.182;-1.946;2023-02-13T08:19:38;2.50;99.90
61400;DHT22;47269;48.182;-1.946;2023-02-13T08:22:04;2.50;99.90
61400;DHT22;47269;48.182;-1.946;2023-02-13T08:24:29;2.60;99.90
61400;DHT22;47269;48.182;-1.946;2023-02-13T08:26:56;2.60;99.90
61400;DHT22;47269;48.182;-1.946;2023-02-13T08:29:22;2.80;99.90
61400;DHT22;47269;48.182;-1.946;2023-02-13T08:31:48;2.70;99.90
61400;DHT22;47269;48.182;-1.946;2023-02-13T08:34:13;2.60;99.90
61400;DHT22;47269;48.182;-1.946;2023-02-13T08:36:39;2.80;99.90
61400;DHT22;47269;48.182;-1.946;2023-02-13T08:39:05;2.80;99.90
61400;DHT22;47269;48.182;-1.946;2023-02-13T08:41:30;2.90;99.90
61400;DHT22;47269;48.182;-1.946;2023-02-13T08:43:56;2.80;99.90
61400;DHT22;47269;48.182;-1.946;2023-02-13T08:46:22;2.80;99.90
61400;DHT22;47269;48.182;-1.946;2023-02-13T08:48:47;2.90;99.90
61400;DHT22;47269;48.182;-1.946;2023-02-13T08:51:13;2.90;99.90
61400;DHT22;47269;48.182;-1.946;2023-02-13T08:53:39;3.00;99.90
61400;DHT22;47269;48.182;-1.946;2023-02-13T08:56:05;3.00;99.90
61400;DHT22;47269;48.182;-1.946;2023-02-13T08:58:31;3.10;99.90
61400;DHT22;47269;48.182;-1.946;2023-02-13T09:00:57;3.10;99.90
61400;DHT22;47269;48.182;-1.946;2023-02-13T09:03:23;3.20;99.90
61400;DHT22;47269;48.182;-1.946;2023-02-13T09:05:49;3.20;99.90
61400;DHT22;47269;48.182;-1.946;2023-02-13T09:08:15;3.20;99.90
61400;DHT22;47269;48.182;-1.946;2023-02-13T09:10:41;3.10;99.90
61400;DHT22;47269;48.182;-1.946;2023-02-13T09:13:10;3.20;99.90
61400;DHT22;47269;48.182;-1.946;2023-02-13T09:15:39;3.40;99.90
61400;DHT22;47269;48.182;-1.946;2023-02-13T09:18:07;3.30;99.90
61400;DHT22;47269;48.182;-1.946;2023-02-13T09:20:33;3.50;99.90
61400;DHT22;47269;48.182;-1.946;2023-02-13T09:22:58;3.50;99.90
61400;DHT22;47269;48.182;-1.946;2023-02-13T09:25:24;3.40;99.90
61400;DHT22;47269;48.182;-1.946;2023-02-13T09:27:50;3.70;99.90
61400;DHT22;47269;48.182;-1.946;2023-02-13T09:30:16;3.80;99.90
61400;DHT22;47269;48.182;-1.946;2023-02-13T09:32:48;3.90;99.90
61400;DHT22;47269;48.182;-1.946;2023-02-13T09:35:15;4.00;99.90
61400;DHT22;47269;48.182;-1.946;2023-02-13T09:37:40;3.80;99.90
61400;DHT22;47269;48.182;-1.946;2023-02-13T09:42:45;4.10;99.90
61400;DHT22;47269;48.182;-1.946;2023-02-13T09:45:13;3.90;99.90
61400;DHT22;47269;48.182;-1.946;2023-02-13T09:47:43;4.00;99.90
61400;DHT22;47269;48.182;-1.946;2023-02-13T09:50:25;4.10;99.90
61400;DHT22;47269;48.182;-1.946;2023-02-13T09:52:54;4.00;99.90
61400;DHT22;47269;48.182;-1.946;2023-02-13T09:58:26;4.20;99.90
61400;DHT22;47269;48.182;-1.946;2023-02-13T10:00:59;4.30;99.90
61400;DHT22;47269;48.182;-1.946;2023-02-13T10:06:52;4.30;99.90
61400;DHT22;47269;48.182;-1.946;2023-02-13T10:09:30;4.50;99.90
61400;DHT22;47269;48.182;-1.946;2023-02-13T10:12:19;4.60;99.90
61400;DHT22;47269;48.182;-1.946;2023-02-13T10:17:33;4.70;99.90
61400;DHT22;47269;48.182;-1.946;2023-02-13T10:20:09;5.00;99.90
61400;DHT22;47269;48.182;-1.946;2023-02-13T10:22:55;4.90;99.90
61400;DHT22;47269;48.182;-1.946;2023-02-13T10:25:27;4.80;99.90
61400;DHT22;47269;48.182;-1.946;2023-02-13T10:28:08;4.90;99.90
61400;DHT22;47269;48.182;-1.946;2023-02-13T10:30:47;5.20;99.90
61400;DHT22;47269;48.182;-1.946;2023-02-13T10:33:26;5.30;99.90
61400;DHT22;47269;48.182;-1.946;2023-02-13T10:36:29;5.10;99.90
61400;DHT22;47269;48.182;-1.946;2023-02-13T10:41:53;5.30;99.90
61400;DHT22;47269;48.182;-1.946;2023-02-13T10:44:35;5.30;99.90
61400;DHT22;47269;48.182;-1.946;2023-02-13T11:00:52;6.00;99.90
61400;DHT22;47269;48.182;-1.946;2023-02-13T11:03:22;6.20;99.90
61400;DHT22;47269;48.182;-1.946;2023-02-13T11:05:49;9.80;99.90
61400;DHT22;47269;48.182;-1.946;2023-02-13T11:08:38;11.20;99.90
61400;DHT22;47269;48.182;-1.946;2023-02-13T11:11:28;8.50;99.90
61400;DHT22;47269;48.182;-1.946;2023-02-13T11:17:00;7.20;99.90
61400;DHT22;47269;48.182;-1.946;2023-02-13T11:19:38;7.80;99.90
61400;DHT22;47269;48.182;-1.946;2023-02-13T11:22:11;10.60;99.90
61400;DHT22;47269;48.182;-1.946;2023-02-13T11:24:40;11.70;99.90
61400;DHT22;47269;48.182;-1.946;2023-02-13T11:27:09;13.00;99.90
61400;DHT22;47269;48.182;-1.946;2023-02-13T11:29:54;15.20;99.90
61400;DHT22;47269;48.182;-1.946;2023-02-13T11:32:25;15.50;99.90
61400;DHT22;47269;48.182;-1.946;2023-02-13T11:34:52;16.00;99.90
61400;DHT22;47269;48.182;-1.946;2023-02-13T11:37:29;16.00;99.90
61400;DHT22;47269;48.182;-1.946;2023-02-13T11:39:58;16.60;99.90
61400;DHT22;47269;48.182;-1.946;2023-02-13T11:42:26;17.90;99.90
61400;DHT22;47269;48.182;-1.946;2023-02-13T11:44:55;16.90;99.90
61400;DHT22;47269;48.182;-1.946;2023-02-13T11:49:59;18.50;99.90
61400;DHT22;47269;48.182;-1.946;2023-02-13T11:52:31;19.10;99.90
61400;DHT22;47269;48.182;-1.946;2023-02-13T11:55:00;19.30;99.90
61400;DHT22;47269;48.182;-1.946;2023-02-13T11:57:33;20.80;99.90
61400;DHT22;47269;48.182;-1.946;2023-02-13T12:00:00;20.60;99.90
61400;DHT22;47269;48.182;-1.946;2023-02-13T12:02:48;20.20;99.90
61400;DHT22;47269;48.182;-1.946;2023-02-13T12:05:19;21.80;99.90
61400;DHT22;47269;48.182;-1.946;2023-02-13T12:07:46;22.10;99.90
61400;DHT22;47269;48.182;-1.946;2023-02-13T12:10:24;22.20;99.90
61400;DHT22;47269;48.182;-1.946;2023-02-13T12:13:04;22.60;99.90
61400;DHT22;47269;48.182;-1.946;2023-02-13T12:15:35;21.70;99.90
61400;DHT22;47269;48.182;-1.946;2023-02-13T12:18:28;22.80;99.90
61400;DHT22;47269;48.182;-1.946;2023-02-13T12:26:17;22.30;99.60
61400;DHT22;47269;48.182;-1.946;2023-02-13T12:39:39;23.90;96.70
61400;DHT22;47269;48.182;-1.946;2023-02-13T12:42:28;23.60;96.50
61400;DHT22;47269;48.182;-1.946;2023-02-13T12:48:03;23.90;94.80
61400;DHT22;47269;48.182;-1.946;2023-02-13T13:01:35;25.60;90.80
61400;DHT22;47269;48.182;-1.946;2023-02-13T13:10:20;24.50;91.30
61400;DHT22;47269;48.182;-1.946;2023-02-13T13:20:47;26.00;86.80
61400;DHT22;47269;48.182;-1.946;2023-02-13T13:23:20;25.60;88.10
61400;DHT22;47269;48.182;-1.946;2023-02-13T13:26:07;25.30;86.20
61400;DHT22;47269;48.182;-1.946;2023-02-13T13:28:43;25.60;86.00
61400;DHT22;47269;48.182;-1.946;2023-02-13T13:31:12;25.80;87.40
61400;DHT22;47269;48.182;-1.946;2023-02-13T13:33:42;26.00;86.40
61400;DHT22;47269;48.182;-1.946;2023-02-13T13:45:24;27.20;85.20
61400;DHT22;47269;48.182;-1.946;2023-02-13T13:49:58;27.40;80.30
61400;DHT22;47269;48.182;-1.946;2023-02-13T13:52:35;25.90;80.30
61400;DHT22;47269;48.182;-1.946;2023-02-13T13:55:04;26.60;81.70
61400;DHT22;47269;48.182;-1.946;2023-02-13T14:02:51;26.50;81.30
61400;DHT22;47269;48.182;-1.946;2023-02-13T14:05:56;26.50;80.70
61400;DHT22;47269;48.182;-1.946;2023-02-13T14:13:51;27.20;80.60
61400;DHT22;47269;48.182;-1.946;2023-02-13T14:16:37;26.60;78.70
61400;DHT22;47269;48.182;-1.946;2023-02-13T14:19:04;26.10;79.10
61400;DHT22;47269;48.182;-1.946;2023-02-13T14:21:30;25.90;82.20
61400;DHT22;47269;48.182;-1.946;2023-02-13T14:23:57;27.20;80.70
61400;DHT22;47269;48.182;-1.946;2023-02-13T14:26:39;26.10;81.70
61400;DHT22;47269;48.182;-1.946;2023-02-13T14:29:32;25.60;81.50
61400;DHT22;47269;48.182;-1.946;2023-02-13T14:32:02;26.40;82.10
61400;DHT22;47269;48.182;-1.946;2023-02-13T14:34:35;26.90;81.50
61400;DHT22;47269;48.182;-1.946;2023-02-13T14:39:35;24.10;79.60
61400;DHT22;47269;48.182;-1.946;2023-02-13T14:42:02;25.60;81.80
61400;DHT22;47269;48.182;-1.946;2023-02-13T14:44:36;25.60;82.50
61400;DHT22;47269;48.182;-1.946;2023-02-13T14:47:12;27.20;82.30
61400;DHT22;47269;48.182;-1.946;2023-02-13T14:49:39;26.20;82.80
61400;DHT22;47269;48.182;-1.946;2023-02-13T14:52:28;26.80;81.60
61400;DHT22;47269;48.182;-1.946;2023-02-13T14:55:03;26.20;81.00
61400;DHT22;47269;48.182;-1.946;2023-02-13T14:57:42;27.30;81.20
61400;DHT22;47269;48.182;-1.946;2023-02-13T15:02:45;23.80;86.70
61400;DHT22;47269;48.182;-1.946;2023-02-13T15:05:17;26.20;85.50
61400;DHT22;47269;48.182;-1.946;2023-02-13T15:07:52;26.60;84.10
61400;DHT22;47269;48.182;-1.946;2023-02-13T15:12:56;27.10;83.60
61400;DHT22;47269;48.182;-1.946;2023-02-13T15:15:32;26.70;82.20
61400;DHT22;47269;48.182;-1.946;2023-02-13T15:18:08;25.90;82.50
61400;DHT22;47269;48.182;-1.946;2023-02-13T15:20:37;26.20;84.50
61400;DHT22;47269;48.182;-1.946;2023-02-13T15:23:05;25.60;81.90
61400;DHT22;47269;48.182;-1.946;2023-02-13T15:25:34;25.00;81.40
61400;DHT22;47269;48.182;-1.946;2023-02-13T15:28:01;25.70;80.00
61400;DHT22;47269;48.182;-1.946;2023-02-13T15:30:33;23.70;78.00
61400;DHT22;47269;48.182;-1.946;2023-02-13T15:33:16;25.20;78.60
61400;DHT22;47269;48.182;-1.946;2023-02-13T15:35:42;24.80;77.70
61400;DHT22;47269;48.182;-1.946;2023-02-13T15:38:31;24.10;76.40
61400;DHT22;47269;48.182;-1.946;2023-02-13T15:41:06;24.40;77.50
61400;DHT22;47269;48.182;-1.946;2023-02-13T15:43:34;23.60;77.30
61400;DHT22;47269;48.182;-1.946;2023-02-13T15:46:20;23.90;78.90
61400;DHT22;47269;48.182;-1.946;2023-02-13T15:48:49;24.30;77.50
61400;DHT22;47269;48.182;-1.946;2023-02-13T15:51:20;23.70;79.50
61400;DHT22;47269;48.182;-1.946;2023-02-13T15:56:48;22.80;78.20
61400;DHT22;47269;48.182;-1.946;2023-02-13T15:59:17;22.90;81.30
61400;DHT22;47269;48.182;-1.946;2023-02-13T16:01:43;21.70;81.80
61400;DHT22;47269;48.182;-1.946;2023-02-13T16:04:12;21.20;82.80
61400;DHT22;47269;48.182;-1.946;2023-02-13T16:06:43;21.30;83.80
61400;DHT22;47269;48.182;-1.946;2023-02-13T16:09:29;21.60;84.50
61400;DHT22;47269;48.182;-1.946;2023-02-13T16:12:02;21.50;83.50
61400;DHT22;47269;48.182;-1.946;2023-02-13T16:14:29;21.50;85.30
61400;DHT22;47269;48.182;-1.946;2023-02-13T16:17:17;20.30;88.20
61400;DHT22;47269;48.182;-1.946;2023-02-13T16:22:44;18.20;91.50
61400;DHT22;47269;48.182;-1.946;2023-02-13T16:25:29;17.80;94.40
61400;DHT22;47269;48.182;-1.946;2023-02-13T16:27:59;16.90;98.10
61400;DHT22;47269;48.182;-1.946;2023-02-13T16:30:44;16.80;99.90
61400;DHT22;47269;48.182;-1.946;2023-02-13T16:38:33;15.60;99.90
61400;DHT22;47269;48.182;-1.946;2023-02-13T16:43:53;15.30;99.90
61400;DHT22;47269;48.182;-1.946;2023-02-13T16:46:23;15.00;99.90
61400;DHT22;47269;48.182;-1.946;2023-02-13T16:51:24;14.70;99.90
61400;DHT22;47269;48.182;-1.946;2023-02-13T17:02:32;14.20;99.90
61400;DHT22;47269;48.182;-1.946;2023-02-13T17:07:35;13.90;99.90
61400;DHT22;47269;48.182;-1.946;2023-02-13T17:10:12;13.60;99.90
61400;DHT22;47269;48.182;-1.946;2023-02-13T17:12:43;13.60;99.90
61400;DHT22;47269;48.182;-1.946;2023-02-13T17:15:12;13.30;99.90
61400;DHT22;47269;48.182;-1.946;2023-02-13T17:17:38;13.20;99.90
61400;DHT22;47269;48.182;-1.946;2023-02-13T17:20:04;13.00;99.90
61400;DHT22;47269;48.182;-1.946;2023-02-13T17:22:40;12.90;99.90
61400;DHT22;47269;48.182;-1.946;2023-02-13T17:25:14;12.60;99.90
61400;DHT22;47269;48.182;-1.946;2023-02-13T17:27:41;12.60;99.90
61400;DHT22;47269;48.182;-1.946;2023-02-13T17:30:13;12.30;99.90
61400;DHT22;47269;48.182;-1.946;2023-02-13T17:32:38;12.40;99.90
61400;DHT22;47269;48.182;-1.946;2023-02-13T17:35:05;12.50;99.90
61400;DHT22;47269;48.182;-1.946;2023-02-13T17:37:31;12.50;99.90
61400;DHT22;47269;48.182;-1.946;2023-02-13T17:39:57;12.50;99.90
61400;DHT22;47269;48.182;-1.946;2023-02-13T17:42:26;12.30;99.90
61400;DHT22;47269;48.182;-1.946;2023-02-13T17:44:53;12.30;99.90
61400;DHT22;47269;48.182;-1.946;2023-02-13T17:47:20;12.10;99.90
61400;DHT22;47269;48.182;-1.946;2023-02-13T17:49:46;12.10;99.90
61400;DHT22;47269;48.182;-1.946;2023-02-13T17:52:25;12.10;99.90
61400;DHT22;47269;48.182;-1.946;2023-02-13T17:54:53;12.00;99.90
61400;DHT22;47269;48.182;-1.946;2023-02-13T17:57:18;12.00;99.90
61400;DHT22;47269;48.182;-1.946;2023-02-13T17:59:44;11.60;99.90
61400;DHT22;47269;48.182;-1.946;2023-02-13T18:04:40;11.60;99.90
61400;DHT22;47269;48.182;-1.946;2023-02-13T18:07:06;11.50;99.90
61400;DHT22;47269;48.182;-1.946;2023-02-13T18:09:32;11.00;99.90
61400;DHT22;47269;48.182;-1.946;2023-02-13T18:11:58;10.80;99.90
61400;DHT22;47269;48.182;-1.946;2023-02-13T18:14:24;10.70;99.90
61400;DHT22;47269;48.182;-1.946;2023-02-13T18:16:49;10.70;99.90
61400;DHT22;47269;48.182;-1.946;2023-02-13T18:19:15;10.50;99.90
61400;DHT22;47269;48.182;-1.946;2023-02-13T18:21:40;10.50;99.90
61400;DHT22;47269;48.182;-1.946;2023-02-13T18:24:07;10.40;99.90
61400;DHT22;47269;48.182;-1.946;2023-02-13T18:26:33;10.50;99.90
61400;DHT22;47269;48.182;-1.946;2023-02-13T18:28:59;10.60;99.90
61400;DHT22;47269;48.182;-1.946;2023-02-13T18:31:25;10.40;99.90
61400;DHT22;47269;48.182;-1.946;2023-02-13T18:33:50;10.40;99.90
61400;DHT22;47269;48.182;-1.946;2023-02-13T18:36:16;10.20;99.90
61400;DHT22;47269;48.182;-1.946;2023-02-13T18:38:42;10.00;99.90
61400;DHT22;47269;48.182;-1.946;2023-02-13T18:41:07;10.00;99.90
61400;DHT22;47269;48.182;-1.946;2023-02-13T18:43:33;10.00;99.90
61400;DHT22;47269;48.182;-1.946;2023-02-13T18:45:59;10.00;99.90
61400;DHT22;47269;48.182;-1.946;2023-02-13T18:48:25;9.90;99.90
61400;DHT22;47269;48.182;-1.946;2023-02-13T18:50:51;9.80;99.90
61400;DHT22;47269;48.182;-1.946;2023-02-13T18:53:17;9.70;99.90
61400;DHT22;47269;48.182;-1.946;2023-02-13T18:55:42;9.70;99.90
61400;DHT22;47269;48.182;-1.946;2023-02-13T18:58:08;9.70;99.90
61400;DHT22;47269;48.182;-1.946;2023-02-13T19:00:34;9.70;99.90
61400;DHT22;47269;48.182;-1.946;2023-02-13T19:02:59;9.40;99.90
61400;DHT22;47269;48.182;-1.946;2023-02-13T19:05:26;9.20;99.90
61400;DHT22;47269;48.182;-1.946;2023-02-13T19:07:52;9.00;99.90
61400;DHT22;47269;48.182;-1.946;2023-02-13T19:10:17;8.80;99.90
61400;DHT22;47269;48.182;-1.946;2023-02-13T19:12:43;8.70;99.90
61400;DHT22;47269;48.182;-1.946;2023-02-13T19:15:09;8.70;99.90
61400;DHT22;47269;48.182;-1.946;2023-02-13T19:17:36;8.80;99.90
61400;DHT22;47269;48.182;-1.946;2023-02-13T19:20:02;8.80;99.90
61400;DHT22;47269;48.182;-1.946;2023-02-13T19:22:28;8.80;99.90
61400;DHT22;47269;48.182;-1.946;2023-02-13T19:24:54;8.80;99.90
61400;DHT22;47269;48.182;-1.946;2023-02-13T19:27:19;8.70;99.90
61400;DHT22;47269;48.182;-1.946;2023-02-13T19:29:46;8.50;99.90
61400;DHT22;47269;48.182;-1.946;2023-02-13T19:32:12;8.40;99.90
61400;DHT22;47269;48.182;-1.946;2023-02-13T19:34:37;8.40;99.90
61400;DHT22;47269;48.182;-1.946;2023-02-13T19:37:04;8.30;99.90
61400;DHT22;47269;48.182;-1.946;2023-02-13T19:39:29;8.30;99.90
61400;DHT22;47269;48.182;-1.946;2023-02-13T19:41:55;8.20;99.90
61400;DHT22;47269;48.182;-1.946;2023-02-13T19:44:21;8.10;99.90
61400;DHT22;47269;48.182;-1.946;2023-02-13T19:46:46;8.00;99.90
61400;DHT22;47269;48.182;-1.946;2023-02-13T19:49:12;8.10;99.90
61400;DHT22;47269;48.182;-1.946;2023-02-13T19:51:38;8.20;99.90
61400;DHT22;47269;48.182;-1.946;2023-02-13T19:54:07;8.00;99.90
61400;DHT22;47269;48.182;-1.946;2023-02-13T19:56:35;8.10;99.90
61400;DHT22;47269;48.182;-1.946;2023-02-13T19:59:02;8.10;99.90
61400;DHT22;47269;48.182;-1.946;2023-02-13T20:01:28;8.10;99.90
61400;DHT22;47269;48.182;-1.946;2023-02-13T20:03:54;8.10;99.90
61400;DHT22;47269;48.182;-1.946;2023-02-13T20:06:26;8.00;99.90
61400;DHT22;47269;48.182;-1.946;2023-02-13T20:08:53;8.10;99.90
61400;DHT22;47269;48.182;-1.946;2023-02-13T20:11:20;8.20;99.90
61400;DHT22;47269;48.182;-1.946;2023-02-13T20:13:47;8.20;99.90
61400;DHT22;47269;48.182;-1.946;2023-02-13T20:16:14;8.30;99.90
61400;DHT22;47269;48.182;-1.946;2023-02-13T20:18:41;8.20;99.90
61400;DHT22;47269;48.182;-1.946;2023-02-13T20:21:12;8.20;99.90
61400;DHT22;47269;48.182;-1.946;2023-02-13T20:23:39;8.10;99.90
61400;DHT22;47269;48.182;-1.946;2023-02-13T20:26:07;8.00;99.90
61400;DHT22;47269;48.182;-1.946;2023-02-13T20:28:35;8.00;99.90
61400;DHT22;47269;48.182;-1.946;2023-02-13T20:31:01;7.90;99.90
61400;DHT22;47269;48.182;-1.946;2023-02-13T20:33:35;7.90;99.90
61400;DHT22;47269;48.182;-1.946;2023-02-13T20:36:10;8.00;99.90
61400;DHT22;47269;48.182;-1.946;2023-02-13T20:38:36;7.90;99.90
61400;DHT22;47269;48.182;-1.946;2023-02-13T20:41:13;7.80;99.90
61400;DHT22;47269;48.182;-1.946;2023-02-13T20:43:39;7.80;99.90
61400;DHT22;47269;48.182;-1.946;2023-02-13T20:46:06;7.80;99.90
61400;DHT22;47269;48.182;-1.946;2023-02-13T20:48:34;7.70;99.90
61400;DHT22;47269;48.182;-1.946;2023-02-13T20:51:02;7.70;99.90
61400;DHT22;47269;48.182;-1.946;2023-02-13T20:53:29;7.80;99.90
61400;DHT22;47269;48.182;-1.946;2023-02-13T20:56:03;7.70;99.90
61400;DHT22;47269;48.182;-1.946;2023-02-13T20:58:32;7.60;99.90
61400;DHT22;47269;48.182;-1.946;2023-02-13T21:00:58;7.50;99.90
61400;DHT22;47269;48.182;-1.946;2023-02-13T21:03:24;7.40;99.90
61400;DHT22;47269;48.182;-1.946;2023-02-13T21:05:50;7.30;99.90
61400;DHT22;47269;48.182;-1.946;2023-02-13T21:08:16;7.20;99.90
61400;DHT22;47269;48.182;-1.946;2023-02-13T21:10:42;7.20;99.90
61400;DHT22;47269;48.182;-1.946;2023-02-13T21:13:07;7.20;99.90
61400;DHT22;47269;48.182;-1.946;2023-02-13T21:15:35;7.20;99.90
61400;DHT22;47269;48.182;-1.946;2023-02-13T21:18:01;7.30;99.90
61400;DHT22;47269;48.182;-1.946;2023-02-13T21:20:29;7.40;99.90
61400;DHT22;47269;48.182;-1.946;2023-02-13T21:22:54;7.30;99.90
61400;DHT22;47269;48.182;-1.946;2023-02-13T21:25:20;7.20;99.90
61400;DHT22;47269;48.182;-1.946;2023-02-13T21:27:46;7.10;99.90
61400;DHT22;47269;48.182;-1.946;2023-02-13T21:30:12;7.10;99.90
61400;DHT22;47269;48.182;-1.946;2023-02-13T21:32:38;7.10;99.90
61400;DHT22;47269;48.182;-1.946;2023-02-13T21:35:05;6.90;99.90
61400;DHT22;47269;48.182;-1.946;2023-02-13T21:37:31;6.90;99.90
61400;DHT22;47269;48.182;-1.946;2023-02-13T21:39:56;6.90;99.90
61400;DHT22;47269;48.182;-1.946;2023-02-13T21:42:22;6.90;99.90
61400;DHT22;47269;48.182;-1.946;2023-02-13T21:44:48;6.80;99.90
61400;DHT22;47269;48.182;-1.946;2023-02-13T21:47:14;6.70;99.90
61400;DHT22;47269;48.182;-1.946;2023-02-13T21:49:40;6.50;99.90
61400;DHT22;47269;48.182;-1.946;2023-02-13T21:52:06;6.00;99.90
61400;DHT22;47269;48.182;-1.946;2023-02-13T21:54:32;5.60;99.90
61400;DHT22;47269;48.182;-1.946;2023-02-13T21:56:58;5.30;99.90
61400;DHT22;47269;48.182;-1.946;2023-02-13T21:59:24;5.10;99.90
61400;DHT22;47269;48.182;-1.946;2023-02-13T22:01:50;5.10;99.90
61400;DHT22;47269;48.182;-1.946;2023-02-13T22:04:17;5.10;99.90
61400;DHT22;47269;48.182;-1.946;2023-02-13T22:06:46;4.90;99.90
61400;DHT22;47269;48.182;-1.946;2023-02-13T22:09:15;4.70;99.90
61400;DHT22;47269;48.182;-1.946;2023-02-13T22:11:41;4.70;99.90
61400;DHT22;47269;48.182;-1.946;2023-02-13T22:14:11;4.80;99.90
61400;DHT22;47269;48.182;-1.946;2023-02-13T22:16:37;5.20;99.90
61400;DHT22;47269;48.182;-1.946;2023-02-13T22:19:05;5.50;99.90
61400;DHT22;47269;48.182;-1.946;2023-02-13T22:21:33;5.90;99.90
61400;DHT22;47269;48.182;-1.946;2023-02-13T22:23:59;6.10;99.90
61400;DHT22;47269;48.182;-1.946;2023-02-13T22:26:37;6.00;99.90
61400;DHT22;47269;48.182;-1.946;2023-02-13T22:29:08;6.10;99.90
61400;DHT22;47269;48.182;-1.946;2023-02-13T22:31:35;6.00;99.90
61400;DHT22;47269;48.182;-1.946;2023-02-13T22:34:01;6.10;99.90
61400;DHT22;47269;48.182;-1.946;2023-02-13T22:36:27;6.10;99.90
61400;DHT22;47269;48.182;-1.946;2023-02-13T22:38:53;6.10;99.90
61400;DHT22;47269;48.182;-1.946;2023-02-13T22:41:21;6.20;99.90
61400;DHT22;47269;48.182;-1.946;2023-02-13T22:43:47;6.20;99.90
61400;DHT22;47269;48.182;-1.946;2023-02-13T22:46:21;6.10;99.90
61400;DHT22;47269;48.182;-1.946;2023-02-13T22:48:48;6.10;99.90
61400;DHT22;47269;48.182;-1.946;2023-02-13T22:51:25;6.10;99.90
61400;DHT22;47269;48.182;-1.946;2023-02-13T22:53:55;6.10;99.90
61400;DHT22;47269;48.182;-1.946;2023-02-13T22:56:22;6.00;99.90
61400;DHT22;47269;48.182;-1.946;2023-02-13T22:58:47;6.10;99.90
